Nissho Maru No.18 — JL6369 — position and weather

sailwx.info

Track history (hours):
 
Tides and Currents Weather Stations Pressure Air Temp Water Temp Dewpoint Dewpoint Depression Visibility Wind Speed Wind Dir Waves Ship Positions

Nissho Maru No.18

Last reported at 2016-Jul-24 12:33 UTC. Time now 2016-Jul-24 12:49 UTC.
Position N 34°27' E 135°04'.

Length 65 m; draft 4 m.

Type: Tanker. MMSI: 431500465.

Date/timePositionNaut miles runAvg speedWind from/ knotsBaromVisibWave heightAir tempDewpointWater temp
2016-Jul-24 12:33N 34°27' E 135°04'8 8.2
2016-Jul-24 11:33N 34°36' E 135°03'  
2016-Jul-20 20:33N 34°34' E 134°51'9 8.6
2016-Jul-20 19:30N 34°37' E 135°01'5 5.7
2016-Jul-20 18:33N 34°33' E 135°04'9 8.7
2016-Jul-20 17:33N 34°24' E 135°02'8 7.7
2016-Jul-20 16:31N 34°17' E 134°59'8 8.5
2016-Jul-20 15:33N 34°09' E 135°01'238 7.9
2016-Jul-19 09:33N 35°06' E 139°41'9 8.6
2016-Jul-19 08:33N 35°13' E 139°46'9 9.0
2016-Jul-19 07:33N 35°22' E 139°42'10 3.3
2016-Jul-19 04:33N 35°31' E 139°46'0 0.0
2016-Jul-19 03:33N 35°31' E 139°46'0 0.0
2016-Jul-19 02:34N 35°31' E 139°46'0 0.0
2016-Jul-19 01:34N 35°31' E 139°46'0 0.0
2016-Jul-19 00:34N 35°31' E 139°46'2 2.4
2016-Jul-18 23:33N 35°30' E 139°48'1 1.1
2016-Jul-18 22:31N 35°29' E 139°49'0 0.0
2016-Jul-18 21:31N 35°29' E 139°49'0 0.0
2016-Jul-18 20:33N 35°29' E 139°49'0 0.0
2016-Jul-18 19:33N 35°29' E 139°49'0 0.0
2016-Jul-18 18:33N 35°29' E 139°49'0 0.0
2016-Jul-18 17:33N 35°29' E 139°49'0 0.0
2016-Jul-18 16:33N 35°29' E 139°49'0 0.0
2016-Jul-18 15:33N 35°29' E 139°49'0 0.0
2016-Jul-18 14:33N 35°29' E 139°49'0 0.0
2016-Jul-18 13:30N 35°29' E 139°49'0 0.0
2016-Jul-18 12:33N 35°29' E 139°49'0 0.0
2016-Jul-18 11:33N 35°29' E 139°49'0 0.0
2016-Jul-18 10:30N 35°29' E 139°49'0 0.0
2016-Jul-18 09:33N 35°29' E 139°49'0 0.0
2016-Jul-18 08:33N 35°29' E 139°49'0 0.0
2016-Jul-18 07:33N 35°29' E 139°49'0 0.0
2016-Jul-18 06:33N 35°29' E 139°49'0 0.0
2016-Jul-18 05:33N 35°29' E 139°49'0 0.0
2016-Jul-18 04:33N 35°29' E 139°49'0 0.0
2016-Jul-18 03:33N 35°29' E 139°49'0 0.0
2016-Jul-18 02:33N 35°29' E 139°49'0 0.0
2016-Jul-18 01:33N 35°29' E 139°49'0 0.0
2016-Jul-18 00:33N 35°29' E 139°49'0 0.0
2016-Jul-17 23:33N 35°29' E 139°49'0 0.0
2016-Jul-17 22:33N 35°29' E 139°49'0 0.0
2016-Jul-17 21:33N 35°29' E 139°49'0 0.0
2016-Jul-17 20:33N 35°29' E 139°49'0 0.0
2016-Jul-17 19:33N 35°29' E 139°49'0 0.0
2016-Jul-17 18:33N 35°29' E 139°49'0 0.0
2016-Jul-17 17:33N 35°29' E 139°49'0 0.0
2016-Jul-17 16:33N 35°29' E 139°49'1 1.2
2016-Jul-17 15:33N 35°28' E 139°48'1010.0
2016-Jul-17 14:33N 35°18' E 139°44'10 9.6
2016-Jul-17 13:33N 35°09' E 139°46'243 8.0
2016-Jul-16 07:07N 34°09' E 134°60'5 9.3
2016-Jul-16 06:33N 34°14' E 134°59'18 9.1
2016-Jul-16 04:32N 34°32' E 135°02'8 7.9
2016-Jul-16 03:31N 34°37' E 134°54'2 0.4
2016-Jul-15 21:23N 34°38' E 134°52'910.1
2016-Jul-15 20:32N 34°37' E 135°02'9 8.7
2016-Jul-15 19:33N 34°28' E 135°03'12 9.8
2016-Jul-15 18:17N 34°16' E 134°59'7 9.5
2016-Jul-15 17:32N 34°09' E 135°00'  
Track history (hours):
 
Tides and Currents Weather Stations Pressure Air Temp Water Temp Dewpoint Dewpoint Depression Visibility Wind Speed Wind Dir Waves Ship Positions

Nissho Maru No.18

Last reported at 2016-Jul-24 12:33 UTC. Time now 2016-Jul-24 12:49 UTC.
Position N 34°27' E 135°04'.

Length 65 m; draft 4 m.

Type: Tanker. MMSI: 431500465.

Date/timePositionNaut miles runAvg speedWind from/ knotsBaromVisibWave heightAir tempDewpointWater temp
2016-Jul-24 12:33N 34°27' E 135°04'8 8.2
2016-Jul-24 11:33N 34°36' E 135°03'  
2016-Jul-20 20:33N 34°34' E 134°51'9 8.6
2016-Jul-20 19:30N 34°37' E 135°01'5 5.7
2016-Jul-20 18:33N 34°33' E 135°04'9 8.7
2016-Jul-20 17:33N 34°24' E 135°02'8 7.7
2016-Jul-20 16:31N 34°17' E 134°59'8 8.5
2016-Jul-20 15:33N 34°09' E 135°01'238 7.9
2016-Jul-19 09:33N 35°06' E 139°41'9 8.6
2016-Jul-19 08:33N 35°13' E 139°46'9 9.0
2016-Jul-19 07:33N 35°22' E 139°42'10 3.3
2016-Jul-19 04:33N 35°31' E 139°46'0 0.0
2016-Jul-19 03:33N 35°31' E 139°46'0 0.0
2016-Jul-19 02:34N 35°31' E 139°46'0 0.0
2016-Jul-19 01:34N 35°31' E 139°46'0 0.0
2016-Jul-19 00:34N 35°31' E 139°46'2 2.4
2016-Jul-18 23:33N 35°30' E 139°48'1 1.1
2016-Jul-18 22:31N 35°29' E 139°49'0 0.0
2016-Jul-18 21:31N 35°29' E 139°49'0 0.0
2016-Jul-18 20:33N 35°29' E 139°49'0 0.0
2016-Jul-18 19:33N 35°29' E 139°49'0 0.0
2016-Jul-18 18:33N 35°29' E 139°49'0 0.0
2016-Jul-18 17:33N 35°29' E 139°49'0 0.0
2016-Jul-18 16:33N 35°29' E 139°49'0 0.0
2016-Jul-18 15:33N 35°29' E 139°49'0 0.0
2016-Jul-18 14:33N 35°29' E 139°49'0 0.0
2016-Jul-18 13:30N 35°29' E 139°49'0 0.0
2016-Jul-18 12:33N 35°29' E 139°49'0 0.0
2016-Jul-18 11:33N 35°29' E 139°49'0 0.0
2016-Jul-18 10:30N 35°29' E 139°49'0 0.0
2016-Jul-18 09:33N 35°29' E 139°49'0 0.0
2016-Jul-18 08:33N 35°29' E 139°49'0 0.0
2016-Jul-18 07:33N 35°29' E 139°49'0 0.0
2016-Jul-18 06:33N 35°29' E 139°49'0 0.0
2016-Jul-18 05:33N 35°29' E 139°49'0 0.0
2016-Jul-18 04:33N 35°29' E 139°49'0 0.0
2016-Jul-18 03:33N 35°29' E 139°49'0 0.0
2016-Jul-18 02:33N 35°29' E 139°49'0 0.0
2016-Jul-18 01:33N 35°29' E 139°49'0 0.0
2016-Jul-18 00:33N 35°29' E 139°49'0 0.0
2016-Jul-17 23:33N 35°29' E 139°49'0 0.0
2016-Jul-17 22:33N 35°29' E 139°49'0 0.0
2016-Jul-17 21:33N 35°29' E 139°49'0 0.0
2016-Jul-17 20:33N 35°29' E 139°49'0 0.0
2016-Jul-17 19:33N 35°29' E 139°49'0 0.0
2016-Jul-17 18:33N 35°29' E 139°49'0 0.0
2016-Jul-17 17:33N 35°29' E 139°49'0 0.0
2016-Jul-17 16:33N 35°29' E 139°49'1 1.2
2016-Jul-17 15:33N 35°28' E 139°48'1010.0
2016-Jul-17 14:33N 35°18' E 139°44'10 9.6
2016-Jul-17 13:33N 35°09' E 139°46'243 8.0
2016-Jul-16 07:07N 34°09' E 134°60'5 9.3
2016-Jul-16 06:33N 34°14' E 134°59'18 9.1
2016-Jul-16 04:32N 34°32' E 135°02'8 7.9
2016-Jul-16 03:31N 34°37' E 134°54'2 0.4
2016-Jul-15 21:23N 34°38' E 134°52'910.1
2016-Jul-15 20:32N 34°37' E 135°02'9 8.7
2016-Jul-15 19:33N 34°28' E 135°03'12 9.8
2016-Jul-15 18:17N 34°16' E 134°59'7 9.5
2016-Jul-15 17:32N 34°09' E 135°00'  

Dump ship's entire track history